Time;durP1;ratioP1;P1;durP2;ratioP2;P2;SDS_P1;SDS_P2;PMS_P1;PMS_P2;Temp;Humidity;BMP_temperature;BMP_pressure;BME280_temperature;BME280_humidity;BME280_pressure;Samples;Min_cycle;Max_cycle;Signal;HPM_P1;HPM_P2
2024/04/01 00:00:35;;;;;;;16.63;10.45;;;;;;;7.80;100.00;99583.50;6147002;23;19986;-71
2024/04/01 00:03:02;;;;;;;13.02;8.50;;;;;;;7.79;100.00;99589.88;6120722;23;20096;-71
2024/04/01 00:05:28;;;;;;;17.30;9.70;;;;;;;7.77;100.00;99584.81;6147361;23;20541;-70
2024/04/01 00:07:55;;;;;;;14.10;9.80;;;;;;;7.75;100.00;99586.97;6121739;23;20021;-70
2024/04/01 00:10:21;;;;;;;12.82;8.48;;;;;;;7.71;100.00;99579.81;6173286;23;20024;-70
2024/04/01 00:12:47;;;;;;;16.20;10.18;;;;;;;7.68;100.00;99578.50;6171693;23;20427;-70
2024/04/01 00:15:14;;;;;;;17.77;11.13;;;;;;;7.65;100.00;99581.72;6121479;23;20017;-71
2024/04/01 00:17:40;;;;;;;17.63;11.63;;;;;;;7.58;100.00;99576.69;6173012;23;20027;-70
2024/04/01 00:20:06;;;;;;;13.25;9.13;;;;;;;7.53;100.00;99574.09;6145892;23;20613;-70
2024/04/01 00:22:32;;;;;;;13.13;9.10;;;;;;;7.50;100.00;99587.16;6172806;23;20039;-71
2024/04/01 00:24:58;;;;;;;13.60;9.05;;;;;;;7.46;100.00;99572.81;6145871;23;20095;-71
2024/04/01 00:27:24;;;;;;;16.15;11.25;;;;;;;7.44;100.00;99585.59;6172388;23;20037;-71
2024/04/01 00:29:49;;;;;;;16.20;10.80;;;;;;;7.41;100.00;99604.81;6145849;23;20016;-71
2024/04/01 00:32:15;;;;;;;20.83;12.85;;;;;;;7.44;100.00;99660.97;6145815;23;20005;-70
2024/04/01 00:34:43;;;;;;;20.65;12.77;;;;;;;7.34;100.00;99682.34;6146501;23;20364;-70
2024/04/01 00:37:09;;;;;;;21.10;13.65;;;;;;;7.32;100.00;99700.47;6120610;23;20087;-71
2024/04/01 00:39:35;;;;;;;19.67;13.18;;;;;;;7.35;100.00;99684.72;6170634;23;20455;-70
2024/04/01 00:42:01;;;;;;;22.05;12.10;;;;;;;7.41;100.00;99666.88;6145782;23;20017;-70
2024/04/01 00:44:27;;;;;;;15.82;10.30;;;;;;;7.43;100.00;99670.03;6121537;23;20024;-70
2024/04/01 00:46:54;;;;;;;17.65;10.60;;;;;;;7.42;100.00;99675.66;6145118;23;20448;-70
2024/04/01 00:49:21;;;;;;;21.92;12.80;;;;;;;7.43;100.00;99679.91;6120617;23;20227;-70
2024/04/01 00:51:48;;;;;;;22.50;13.60;;;;;;;7.46;100.00;99661.53;6147658;23;20013;-70
2024/04/01 00:54:15;;;;;;;20.23;13.02;;;;;;;7.41;100.00;99642.91;6145887;23;20020;-70
2024/04/01 00:56:44;;;;;;;27.70;16.90;;;;;;;7.41;100.00;99642.91;6172485;23;20017;-71
2024/04/01 00:59:12;;;;;;;23.63;15.80;;;;;;;7.41;100.00;99618.13;6144272;23;20020;-69
2024/04/01 01:01:37;;;;;;;23.98;15.10;;;;;;;7.42;100.00;99617.84;6121795;23;20108;-70
2024/04/01 01:04:04;;;;;;;22.50;13.48;;;;;;;7.43;100.00;99631.97;6120515;23;20088;-70
2024/04/01 01:06:30;;;;;;;22.67;13.68;;;;;;;7.42;100.00;99625.03;6146542;23;20087;-70
2024/04/01 01:08:57;;;;;;;21.67;14.52;;;;;;;7.40;100.00;99622.66;6144627;23;20016;-70
2024/04/01 01:11:23;;;;;;;20.00;13.82;;;;;;;7.39;100.00;99615.75;6146315;23;20048;-70
2024/04/01 01:13:49;;;;;;;22.95;13.55;;;;;;;7.39;100.00;99611.22;6121272;23;20013;-70
2024/04/01 01:16:15;;;;;;;21.95;14.48;;;;;;;7.41;100.00;99624.25;6145720;23;20027;-70
2024/04/01 01:18:40;;;;;;;22.67;14.40;;;;;;;7.41;100.00;99618.13;6145889;23;20024;-69
2024/04/01 01:21:08;;;;;;;22.85;14.20;;;;;;;7.39;100.00;99619.19;6145923;23;20083;-70
2024/04/01 01:23:34;;;;;;;19.38;12.73;;;;;;;7.42;100.00;99625.03;6171818;23;20016;-71
2024/04/01 01:26:01;;;;;;;23.55;14.85;;;;;;;7.41;100.00;99616.25;6173025;23;20025;-71
2024/04/01 01:28:29;;;;;;;21.63;13.40;;;;;;;7.43;100.00;99614.09;6172453;23;20451;-69
2024/04/01 01:30:55;;;;;;;22.92;13.32;;;;;;;7.43;100.00;99614.09;6145734;23;20013;-70
2024/04/01 01:33:22;;;;;;;23.80;14.38;;;;;;;7.41;100.00;99608.28;6146942;23;20491;-69
2024/04/01 01:35:48;;;;;;;22.20;13.38;;;;;;;7.41;100.00;99596.81;6173644;23;20016;-68
2024/04/01 01:38:15;;;;;;;23.23;12.77;;;;;;;7.38;100.00;99592.81;6144716;23;20354;-68
2024/04/01 01:40:40;;;;;;;20.17;13.88;;;;;;;7.35;100.00;99586.19;6097204;23;20021;-71
2024/04/01 01:43:06;;;;;;;23.10;14.77;;;;;;;7.31;100.00;99587.81;6120630;23;20009;-70
2024/04/01 01:45:32;;;;;;;25.20;14.05;;;;;;;7.27;100.00;99581.44;6172439;23;20024;-69
2024/04/01 01:47:58;;;;;;;22.27;14.80;;;;;;;7.24;100.00;99592.63;6171005;23;20580;-69
2024/04/01 01:50:24;;;;;;;22.92;13.95;;;;;;;7.25;100.00;99596.91;6171352;23;20020;-71
2024/04/01 01:52:51;;;;;;;22.60;13.88;;;;;;;7.24;100.00;99592.63;6172496;23;20025;-69
2024/04/01 01:55:17;;;;;;;25.73;13.77;;;;;;;7.24;100.00;99597.16;6144260;23;20088;-70
2024/04/01 01:57:42;;;;;;;23.73;13.15;;;;;;;7.19;100.00;99589.22;6144693;23;20020;-69
2024/04/01 02:00:13;;;;;;;19.20;11.52;;;;;;;7.16;100.00;99573.78;6170402;23;20052;-71
2024/04/01 02:02:40;;;;;;;18.85;12.82;;;;;;;7.07;100.00;99566.38;6144837;23;20013;-70
2024/04/01 02:05:06;;;;;;;21.95;14.00;;;;;;;7.03;100.00;99561.88;6119839;23;20730;-70
2024/04/01 02:07:32;;;;;;;18.98;12.27;;;;;;;7.02;100.00;99557.63;6096441;23;20021;-70
2024/04/01 02:09:58;;;;;;;21.83;12.63;;;;;;;6.99;100.00;99550.19;6120323;23;20017;-69
2024/04/01 02:12:23;;;;;;;20.30;13.18;;;;;;;6.95;100.00;99547.28;6145897;23;20021;-70
2024/04/01 02:14:49;;;;;;;19.80;12.77;;;;;;;6.92;100.00;99549.72;6145461;23;20847;-70
2024/04/01 02:17:15;;;;;;;20.92;14.38;;;;;;;6.92;100.00;99547.03;6095459;23;20021;-71
2024/04/01 02:19:46;;;;;;;20.48;13.00;;;;;;;6.92;100.00;99547.03;6172540;23;20024;-70
2024/04/01 02:22:17;;;;;;;22.15;13.40;;;;;;;6.91;100.00;99546.25;6144511;23;20013;-71
2024/04/01 02:24:43;;;;;;;19.13;12.00;;;;;;;6.90;100.00;99541.19;6121822;23;20621;-71
2024/04/01 02:27:09;;;;;;;20.77;12.77;;;;;;;6.88;100.00;99540.66;6144981;23;20016;-69
2024/04/01 02:29:38;;;;;;;21.70;13.00;;;;;;;6.83;100.00;99550.25;6146423;23;20009;-70
2024/04/01 02:32:04;;;;;;;21.52;14.18;;;;;;;6.80;100.00;99552.69;6121351;23;20124;-70
2024/04/01 02:34:30;;;;;;;;;;;;;;;6.73;100.00;99552.19;6172885;23;20016;-70
2024/04/01 02:36:55;;;;;;;23.63;13.15;;;;;;;6.68;100.00;99553.00;6171648;23;19912;-71
2024/04/01 02:39:23;;;;;;;19.80;12.27;;;;;;;6.66;100.00;99549.81;6170209;23;20358;-69
2024/04/01 02:41:50;;;;;;;17.42;11.13;;;;;;;6.64;100.00;99562.59;6145803;23;20017;-70
2024/04/01 02:44:16;;;;;;;18.88;12.15;;;;;;;6.61;100.00;99563.13;6118773;23;20021;-70
2024/04/01 02:46:44;;;;;;;21.90;12.43;;;;;;;6.58;100.00;99563.69;6145953;23;20020;-70
2024/04/01 02:49:10;;;;;;;20.63;11.90;;;;;;;6.55;100.00;99558.91;6143842;23;20013;-70
2024/04/01 02:51:36;;;;;;;21.45;12.80;;;;;;;6.52;100.00;99560.25;6172181;23;20403;-70
2024/04/01 02:54:03;;;;;;;18.77;11.35;;;;;;;6.52;100.00;99560.25;6143765;23;20009;-69
2024/04/01 02:56:29;;;;;;;17.83;11.02;;;;;;;6.53;100.00;99561.03;6145584;23;20043;-70
2024/04/01 02:58:55;;;;;;;18.83;12.10;;;;;;;6.52;100.00;99559.44;6144762;23;20012;-70
2024/04/01 03:01:21;;;;;;;23.98;12.95;;;;;;;6.51;100.00;99563.19;6144827;23;20012;-71
2024/04/01 03:03:47;;;;;;;24.25;15.55;;;;;;;6.48;100.00;99558.38;6171062;23;20016;-70
2024/04/01 03:06:14;;;;;;;24.63;15.40;;;;;;;6.43;100.00;99555.75;6144684;23;20088;-71
2024/04/01 03:08:41;;;;;;;20.73;12.57;;;;;;;6.40;100.00;99541.13;6171868;23;20016;-70
2024/04/01 03:11:06;;;;;;;;;;;;;;;6.40;100.00;99545.66;6145491;23;20013;-69
2024/04/01 03:13:32;;;;;;;17.05;11.02;;;;;;;6.39;100.00;99544.06;6144223;23;20359;-70
2024/04/01 03:15:58;;;;;;;17.92;11.63;;;;;;;6.37;100.00;99538.19;6147692;23;20009;-71
2024/04/01 03:18:25;;;;;;;20.33;12.60;;;;;;;6.36;100.00;99539.28;6173837;23;20016;-70
2024/04/01 03:20:54;;;;;;;20.50;12.20;;;;;;;6.36;100.00;99533.97;6123029;23;20020;-70
2024/04/01 03:23:20;;;;;;;23.70;12.98;;;;;;;6.33;100.00;99518.56;6175409;23;20017;-69
2024/04/01 03:25:51;;;;;;;18.80;11.75;;;;;;;6.32;100.00;99516.97;6176023;23;20340;-70
2024/04/01 03:28:17;;;;;;;22.90;14.10;;;;;;;6.31;100.00;99520.69;6148153;23;20026;-72
2024/04/01 03:30:43;;;;;;;25.50;14.85;;;;;;;6.33;100.00;99510.56;6150036;23;20017;-70
2024/04/01 03:33:12;;;;;;;21.30;13.77;;;;;;;6.31;100.00;99507.41;6148286;23;20023;-70
2024/04/01 03:35:39;;;;;;;24.38;13.32;;;;;;;6.31;100.00;99504.75;6149057;23;20013;-70
2024/04/01 03:38:05;;;;;;;21.80;12.82;;;;;;;6.32;100.00;99501.00;6174399;23;20013;-70
2024/04/01 03:40:30;;;;;;;24.77;13.65;;;;;;;6.33;100.00;99497.28;6175565;23;20024;-71
2024/04/01 03:42:56;;;;;;;24.25;12.82;;;;;;;6.32;100.00;99495.69;6124565;23;20040;-72
2024/04/01 03:45:22;;;;;;;21.60;11.95;;;;;;;6.32;100.00;99495.69;6148054;23;20784;-70
2024/04/01 03:47:47;;;;;;;22.30;13.68;;;;;;;6.29;100.00;99497.00;6147911;23;20017;-70
2024/04/01 03:50:13;;;;;;;21.30;13.95;;;;;;;6.27;100.00;99489.31;6147168;23;20047;-70
2024/04/01 03:52:39;;;;;;;21.23;13.98;;;;;;;6.26;100.00;99497.56;6148259;23;20079;-70
2024/04/01 03:55:05;;;;;;;20.55;12.90;;;;;;;6.25;100.00;99488.81;6122734;23;20731;-70
2024/04/01 03:57:31;;;;;;;23.15;13.98;;;;;;;6.24;100.00;99479.25;6148143;23;20538;-72
2024/04/01 03:59:57;;;;;;;23.40;12.43;;;;;;;6.22;100.00;99477.91;6123083;23;20016;-70
2024/04/01 04:02:22;;;;;;;24.55;13.40;;;;;;;6.18;100.00;99469.69;6147564;23;20013;-70
2024/04/01 04:04:48;;;;;;;24.30;12.45;;;;;;;6.15;100.00;99485.38;6174337;23;20017;-71
2024/04/01 04:07:14;;;;;;;17.00;11.23;;;;;;;6.10;100.00;99472.13;6122182;23;20507;-71
2024/04/01 04:09:39;;;;;;;18.10;10.57;;;;;;;6.07;100.00;99467.31;6147877;23;20066;-71
2024/04/01 04:12:05;;;;;;;18.92;11.88;;;;;;;6.03;100.00;99467.09;6122833;23;20109;-71
2024/04/01 04:14:31;;;;;;;18.50;12.10;;;;;;;5.99;100.00;99460.72;6146250;23;20027;-71
2024/04/01 04:16:57;;;;;;;22.83;12.55;;;;;;;5.97;100.00;99468.16;6172521;23;20079;-70
2024/04/01 04:19:25;;;;;;;19.35;11.57;;;;;;;5.95;100.00;99460.44;6171549;23;20459;-70
2024/04/01 04:21:51;;;;;;;19.45;11.77;;;;;;;5.97;100.00;99468.16;6148497;23;20013;-71
2024/04/01 04:24:17;;;;;;;18.63;11.07;;;;;;;5.95;100.00;99462.28;6147814;23;20027;-71
2024/04/01 04:26:43;;;;;;;17.67;10.75;;;;;;;5.93;100.00;99467.09;6151400;23;20016;-70
2024/04/01 04:29:09;;;;;;;20.38;11.82;;;;;;;5.93;100.00;99465.22;6173804;23;20080;-71
2024/04/01 04:31:35;;;;;;;20.52;13.20;;;;;;;5.94;100.00;99476.66;6177281;23;20032;-71
2024/04/01 04:34:05;;;;;;;28.08;14.77;;;;;;;5.91;100.00;99475.34;6123423;23;20412;-71
2024/04/01 04:36:30;;;;;;;22.92;14.30;;;;;;;5.90;100.00;99473.72;6150018;23;20024;-71
2024/04/01 04:38:56;;;;;;;26.05;14.77;;;;;;;5.92;100.00;99470.81;6100179;23;20028;-72
2024/04/01 04:41:24;;;;;;;29.83;16.75;;;;;;;5.90;100.00;99457.78;6149133;23;20021;-71
2024/04/01 04:43:50;;;;;;;24.50;13.25;;;;;;;5.87;100.00;99463.63;6175359;23;20013;-71
2024/04/01 04:46:16;;;;;;;21.08;12.90;;;;;;;5.83;100.00;99459.13;6148885;23;20034;-70
2024/04/01 04:48:43;;;;;;;20.23;11.77;;;;;;;5.83;100.00;99459.94;6099823;23;20375;-69
2024/04/01 04:51:10;;;;;;;25.30;14.93;;;;;;;5.85;100.00;99459.66;6148767;23;20439;-71
2024/04/01 04:53:36;;;;;;;22.58;12.80;;;;;;;5.85;100.00;99454.34;6148690;23;20013;-70
2024/04/01 04:56:05;;;;;;;21.98;13.63;;;;;;;5.85;100.00;99459.66;6100038;23;20116;-71
2024/04/01 04:58:32;;;;;;;20.92;13.18;;;;;;;5.83;100.00;99461.78;6175496;23;20017;-70
2024/04/01 05:00:58;;;;;;;16.88;11.27;;;;;;;5.83;100.00;99464.44;6148969;23;20019;-71
2024/04/01 05:03:24;;;;;;;19.98;12.73;;;;;;;5.84;100.00;99460.72;6147896;23;20012;-71
2024/04/01 05:05:49;;;;;;;20.42;12.63;;;;;;;5.84;100.00;99460.72;6124347;23;20025;-71
2024/04/01 05:08:15;;;;;;;20.52;12.77;;;;;;;5.85;100.00;99452.47;6175027;23;20064;-70
2024/04/01 05:10:42;;;;;;;23.95;15.65;;;;;;;5.83;100.00;99438.66;6174993;23;20024;-70
2024/04/01 05:13:09;;;;;;;25.50;15.20;;;;;;;5.82;100.00;99437.06;6175036;23;20005;-70
2024/04/01 05:15:36;;;;;;;22.77;13.55;;;;;;;5.83;100.00;99446.66;6148876;23;20025;-72
2024/04/01 05:18:03;;;;;;;29.17;16.45;;;;;;;5.85;100.00;99454.34;6147645;23;20013;-71
2024/04/01 05:20:29;;;;;;;30.00;16.50;;;;;;;5.88;100.00;99465.19;6099476;23;20043;-70
2024/04/01 05:22:55;;;;;;;28.55;16.83;;;;;;;5.89;100.00;99469.47;6175326;23;20067;-71
2024/04/01 05:25:21;;;;;;;28.35;15.23;;;;;;;5.94;100.00;99464.16;6099959;23;20129;-70
2024/04/01 05:27:46;;;;;;;27.02;16.58;;;;;;;5.96;100.00;99456.75;6175612;23;20048;-70
2024/04/01 05:30:14;;;;;;;22.63;14.38;;;;;;;5.98;100.00;99453.81;6173768;23;20025;-70
2024/04/01 05:32:39;;;;;;;27.35;15.35;;;;;;;5.99;100.00;99458.03;6149079;23;20013;-70
2024/04/01 05:35:05;;;;;;;25.13;15.77;;;;;;;6.01;100.00;99456.69;6174572;23;20016;-70
2024/04/01 05:37:32;;;;;;;24.95;14.65;;;;;;;6.05;100.00;99454.31;6148220;23;20616;-71
2024/04/01 05:39:58;;;;;;;25.58;14.40;;;;;;;6.09;100.00;99457.22;6121939;23;20017;-70
2024/04/01 05:42:23;;;;;;;34.22;17.60;;;;;;;6.13;100.00;99456.41;6174100;23;20024;-71
2024/04/01 05:44:50;;;;;;;;;;;;;;;6.20;100.00;99450.81;6175249;23;20343;-71
2024/04/01 05:47:15;;;;;;;29.30;16.90;;;;;;;6.22;100.00;99460.09;6123129;23;20019;-69
2024/04/01 05:49:41;;;;;;;32.72;18.77;;;;;;;6.27;100.00;99464.59;6148890;23;20510;-72
2024/04/01 05:52:08;;;;;;;33.92;19.23;;;;;;;6.27;100.00;99452.09;6174769;23;20443;-70
2024/04/01 05:54:34;;;;;;;34.92;19.85;;;;;;;6.33;100.00;99454.75;6175511;23;20017;-72
2024/04/01 05:57:00;;;;;;;36.83;21.63;;;;;;;6.33;100.00;99452.09;6149748;23;20013;-71
2024/04/01 05:59:26;;;;;;;;;;;;;;;6.34;100.00;99451.00;6147492;23;20100;-70
2024/04/01 06:01:53;;;;;;;33.58;18.27;;;;;;;6.37;100.00;99450.44;6175618;23;20279;-71
2024/04/01 06:04:23;;;;;;;39.20;20.83;;;;;;;6.39;100.00;99457.09;6173740;23;20427;-70
2024/04/01 06:06:49;;;;;;;39.58;20.30;;;;;;;6.40;100.00;99456.03;6176290;23;20024;-71
2024/04/01 06:09:15;;;;;;;30.83;19.63;;;;;;;6.41;100.00;99454.16;6147652;23;20355;-70
2024/04/01 06:11:41;;;;;;;30.63;18.23;;;;;;;6.45;100.00;99452.56;6123924;23;20016;-70
2024/04/01 06:14:08;;;;;;;;;;;;;;;6.46;100.00;99448.81;6149007;23;20020;-70
2024/04/01 06:16:37;;;;;;;42.55;18.85;;;;;;;6.42;100.00;99453.88;6123088;23;20326;-70
2024/04/01 06:19:04;;;;;;;32.42;18.95;;;;;;;6.42;100.00;99447.78;6147803;23;20008;-69
2024/04/01 06:21:30;;;;;;;36.95;20.38;;;;;;;6.43;100.00;99441.38;6148353;23;20009;-72
2024/04/01 06:23:57;;;;;;;41.05;20.95;;;;;;;6.46;100.00;99443.50;6099220;23;20020;-71
2024/04/01 06:26:23;;;;;;;46.28;23.13;;;;;;;6.47;100.00;99445.09;6174294;23;20021;-72
2024/04/01 06:28:48;;;;;;;36.75;21.48;;;;;;;6.50;100.00;99444.53;6174742;23;20545;-71
2024/04/01 06:31:15;;;;;;;43.35;21.75;;;;;;;6.49;100.00;99442.94;6122746;23;20474;-70
2024/04/01 06:33:41;;;;;;;39.78;24.13;;;;;;;6.46;100.00;99435.53;6175061;23;20009;-70
2024/04/01 06:36:07;;;;;;;41.25;22.20;;;;;;;6.46;100.00;99443.50;6175657;23;20132;-70
2024/04/01 06:38:33;;;;;;;38.35;23.00;;;;;;;6.47;100.00;99445.09;6123808;23;20013;-71
2024/04/01 06:40:59;;;;;;;41.75;23.45;;;;;;;6.45;100.00;99439.25;6172470;23;20017;-70
2024/04/01 06:43:25;;;;;;;44.13;23.00;;;;;;;6.44;100.00;99445.66;6098424;23;20061;-71
2024/04/01 06:45:59;;;;;;;42.50;24.45;;;;;;;6.43;100.00;99444.84;6148472;23;20071;-70
2024/04/01 06:48:25;;;;;;;46.45;27.80;;;;;;;6.47;100.00;99435.25;6147623;23;20019;-71
2024/04/01 06:50:50;;;;;;;;;;;;;;;6.46;100.00;99432.88;6100576;23;20017;-72
2024/04/01 06:53:17;;;;;;;37.33;23.02;;;;;;;6.45;100.00;99434.75;6147576;23;20002;-72
2024/04/01 06:55:47;;;;;;;38.78;22.95;;;;;;;6.45;100.00;99442.72;6148694;23;20038;-70
2024/04/01 06:58:13;;;;;;;37.63;22.15;;;;;;;6.49;100.00;99443.75;6147778;23;20152;-70
2024/04/01 07:00:39;;;;;;;36.95;22.38;;;;;;;6.53;100.00;99444.00;6176424;23;20076;-70
2024/04/01 07:03:06;;;;;;;36.55;21.60;;;;;;;6.55;100.00;99444.53;6124757;23;20359;-71
2024/04/01 07:05:31;;;;;;;36.60;23.17;;;;;;;6.55;100.00;99440.00;6175008;23;20031;-70
2024/04/01 07:07:57;;;;;;;42.53;23.25;;;;;;;6.57;100.00;99439.75;6147785;23;20017;-71
2024/04/01 07:10:23;;;;;;;33.92;22.77;;;;;;;6.61;100.00;99440.75;6148655;23;20021;-71
2024/04/01 07:12:50;;;;;;;41.58;23.77;;;;;;;6.63;100.00;99443.13;6150480;23;20024;-70
2024/04/01 07:15:16;;;;;;;38.17;22.90;;;;;;;6.65;100.00;99449.00;6175767;23;20088;-70
2024/04/01 07:17:43;;;;;;;38.85;22.85;;;;;;;6.69;100.00;99455.34;6124982;23;20147;-70
2024/04/01 07:20:12;;;;;;;37.58;21.45;;;;;;;6.70;100.00;99444.41;6100281;23;20722;-71
2024/04/01 07:22:41;;;;;;;38.47;23.83;;;;;;;6.74;100.00;99442.81;6174935;23;20020;-71
2024/04/01 07:25:07;;;;;;;39.65;22.20;;;;;;;6.80;100.00;99448.91;6149476;23;20017;-70
2024/04/01 07:27:34;;;;;;;40.63;22.98;;;;;;;6.83;100.00;99443.81;6148237;23;20016;-70
2024/04/01 07:30:02;;;;;;;35.92;22.73;;;;;;;6.83;100.00;99454.47;6124723;23;20370;-70
2024/04/01 07:32:29;;;;;;;33.35;20.58;;;;;;;6.86;100.00;99444.34;6123862;23;20028;-69
2024/04/01 07:34:55;;;;;;;42.53;25.73;;;;;;;6.90;100.00;99432.06;6149889;23;20009;-70
2024/04/01 07:37:20;;;;;;;39.35;22.60;;;;;;;6.92;100.00;99446.69;6147910;23;20019;-71
2024/04/01 07:39:46;;;;;;;35.83;23.20;;;;;;;6.93;100.00;99436.84;6124269;23;20017;-71
2024/04/01 07:42:12;;;;;;;37.70;24.98;;;;;;;6.96;100.00;99438.94;6147677;23;20031;-71
2024/04/01 07:44:37;;;;;;;40.17;23.00;;;;;;;6.98;100.00;99456.25;6100050;23;20013;-71
2024/04/01 07:47:03;;;;;;;43.10;25.38;;;;;;;7.03;100.00;99447.41;6125010;23;20446;-71
2024/04/01 07:49:28;;;;;;;41.28;23.02;;;;;;;7.07;100.00;99454.56;6124067;23;20021;-71
2024/04/01 07:51:54;;;;;;;43.20;26.38;;;;;;;7.10;100.00;99453.22;6125068;23;20048;-71
2024/04/01 07:54:23;;;;;;;43.33;26.60;;;;;;;7.13;100.00;99442.03;6175220;23;20089;-71
2024/04/01 07:56:49;;;;;;;40.38;25.25;;;;;;;7.18;100.00;99459.81;6125360;23;20017;-71
2024/04/01 07:59:14;;;;;;;40.88;21.88;;;;;;;7.18;100.00;99434.00;6124552;23;20096;-71
2024/04/01 08:01:40;;;;;;;41.03;25.10;;;;;;;7.23;100.00;99428.63;6147979;23;20024;-70
2024/04/01 08:04:06;;;;;;;35.22;22.27;;;;;;;7.27;100.00;99424.34;6148558;23;20017;-71
2024/04/01 08:06:31;;;;;;;33.20;21.90;;;;;;;7.32;100.00;99412.84;6174861;23;20052;-71
2024/04/01 08:08:57;;;;;;;42.53;23.85;;;;;;;7.34;100.00;99405.38;6148692;23;20008;-71
2024/04/01 08:11:23;;;;;;;37.85;23.00;;;;;;;7.36;100.00;99409.31;6124200;23;20518;-71
2024/04/01 08:13:49;;;;;;;38.92;23.10;;;;;;;7.40;100.00;99398.91;6149590;23;20515;-72
2024/04/01 08:16:15;;;;;;;42.72;24.90;;;;;;;7.42;100.00;99402.09;6124787;23;20024;-72
2024/04/01 08:18:41;;;;;;;36.58;21.50;;;;;;;7.45;100.00;99406.06;6125690;23;20087;-72
2024/04/01 08:21:07;;;;;;;38.63;23.88;;;;;;;7.47;100.00;99396.72;6148803;23;20020;-70
2024/04/01 08:23:32;;;;;;;37.83;23.15;;;;;;;7.51;100.00;99394.28;6148860;23;20005;-71
2024/04/01 08:25:58;;;;;;;36.25;23.77;;;;;;;7.54;100.00;99393.72;6149576;23;20017;-71
2024/04/01 08:28:24;;;;;;;43.00;24.50;;;;;;;7.55;100.00;99390.78;6148513;23;20415;-71
2024/04/01 08:30:49;;;;;;;42.00;24.42;;;;;;;7.61;100.00;99367.53;6149682;23;20152;-71
2024/04/01 08:33:16;;;;;;;46.20;25.45;;;;;;;7.62;100.00;99369.13;6100265;23;20709;-71
2024/04/01 08:35:42;;;;;;;46.42;25.33;;;;;;;7.66;100.00;99364.81;6175621;23;20013;-71
2024/04/01 08:38:08;;;;;;;46.00;26.60;;;;;;;7.69;100.00;99364.25;6099275;23;20028;-71
2024/04/01 08:41:01;;;;;;;45.67;24.30;;;;;;;7.71;100.00;99366.63;6149245;23;20017;-72
2024/04/01 08:44:04;;;;;;;47.65;27.17;;;;;;;7.73;100.00;99362.63;6171767;23;20005;-71
2024/04/01 08:46:32;;;;;;;42.80;26.63;;;;;;;7.74;100.00;99392.72;6171030;23;20057;-71
2024/04/01 08:49:00;;;;;;;50.35;28.15;;;;;;;7.74;100.00;99438.81;6149091;23;20019;-71
2024/04/01 08:51:27;;;;;;;46.47;26.15;;;;;;;7.77;100.00;99480.09;6148253;23;20013;-71
2024/04/01 08:54:01;;;;;;;53.78;29.02;;;;;;;7.80;100.00;99496.31;6149242;23;20458;-71
2024/04/01 08:56:30;;;;;;;46.28;25.90;;;;;;;7.81;100.00;99489.91;6124371;23;20013;-71
2024/04/01 08:58:57;;;;;;;45.95;27.67;;;;;;;7.84;100.00;99472.56;6150028;23;20387;-72
2024/04/01 09:01:23;;;;;;;44.05;27.60;;;;;;;7.83;100.00;99469.09;6175345;23;20021;-72
2024/04/01 09:03:49;;;;;;;44.17;26.33;;;;;;;7.86;100.00;99460.56;6148950;23;20044;-72
2024/04/01 09:06:15;;;;;;;41.17;24.48;;;;;;;7.88;100.00;99458.38;6149188;23;20063;-72
2024/04/01 09:08:42;;;;;;;40.85;24.95;;;;;;;7.91;100.00;99449.03;6149301;23;20021;-71
2024/04/01 09:11:08;;;;;;;;;;;;;;;7.92;100.00;99438.09;6176523;23;20017;-72
2024/04/01 09:13:34;;;;;;;37.95;22.77;;;;;;;7.94;100.00;99441.25;6147969;23;20056;-73
2024/04/01 09:16:00;;;;;;;37.95;23.92;;;;;;;7.99;100.00;99442.28;6149831;23;20067;-73
2024/04/01 09:18:29;;;;;;;38.22;22.83;;;;;;;7.97;100.00;99445.22;6149020;23;20009;-73
2024/04/01 09:20:57;;;;;;;35.05;21.17;;;;;;;7.98;100.00;99446.03;6124798;23;20013;-72
2024/04/01 09:23:24;;;;;;;38.05;23.45;;;;;;;8.02;100.00;99439.84;6147199;23;20013;-72
2024/04/01 09:25:52;;;;;;;39.28;25.08;;;;;;;8.06;100.00;99426.72;6149016;23;20021;-72
2024/04/01 09:28:19;;;;;;;42.15;27.38;;;;;;;8.06;100.00;99438.22;6148791;23;20020;-72
2024/04/01 09:30:44;;;;;;;41.17;25.38;;;;;;;8.10;100.00;99427.75;6175360;23;20009;-73
2024/04/01 09:33:10;;;;;;;40.00;23.50;;;;;;;8.13;100.00;99427.19;6149442;23;20008;-72
2024/04/01 09:35:36;;;;;;;42.45;26.20;;;;;;;8.18;100.00;99408.44;6149186;23;20431;-75
2024/04/01 09:38:03;;;;;;;46.70;28.23;;;;;;;8.21;100.00;99397.22;6147555;23;20021;-71
2024/04/01 09:40:30;;;;;;;;;;;;;;;8.26;100.00;99388.34;6124648;23;20420;-72
2024/04/01 09:42:58;;;;;;;51.22;29.90;;;;;;;8.33;100.00;99383.44;6149625;23;19995;-73
2024/04/01 09:45:24;;;;;;;53.75;29.33;;;;;;;8.36;100.00;99361.59;6147415;23;20168;-71
2024/04/01 09:47:52;;;;;;;51.22;27.42;;;;;;;8.44;100.00;99353.72;6124597;23;20017;-72
2024/04/01 09:50:19;;;;;;;48.78;27.50;;;;;;;8.47;100.00;99350.47;6124336;23;20087;-73
2024/04/01 09:52:46;;;;;;;61.15;30.88;;;;;;;8.52;100.00;99338.13;6122084;23;20079;-73
2024/04/01 09:55:21;;;;;;;52.67;29.30;;;;;;;8.56;100.00;99339.16;6124027;23;20020;-73
2024/04/01 09:58:08;;;;;;;53.42;31.33;;;;;;;8.65;100.00;99326.72;6148479;23;20013;-72
2024/04/01 10:00:52;;;;;;;56.90;30.58;;;;;;;8.72;100.00;99335.16;6099754;23;20016;-71
2024/04/01 10:03:36;;;;;;;54.47;29.33;;;;;;;8.75;100.00;99326.56;6098607;23;20104;-71
2024/04/01 10:06:35;;;;;;;50.45;28.35;;;;;;;8.80;100.00;99326.47;6149249;23;20020;-72
2024/04/01 10:09:26;;;;;;;56.00;29.35;;;;;;;8.88;100.00;99325.81;6147737;23;20005;-72
2024/04/01 10:12:26;;;;;;;48.28;26.08;;;;;;;8.94;100.00;99313.97;6149192;23;20029;-74
2024/04/01 10:15:22;;;;;;;51.40;28.52;;;;;;;9.03;100.00;99319.44;6149095;23;20019;-71
2024/04/01 10:18:03;;;;;;;47.28;26.70;;;;;;;9.11;100.00;99321.41;6122121;23;20336;-72
2024/04/01 10:20:53;;;;;;;47.55;28.80;;;;;;;9.19;100.00;99317.28;6098956;23;20024;-71
2024/04/01 10:24:03;;;;;;;46.67;25.85;;;;;;;9.23;100.00;99316.41;6174821;23;20012;-72
2024/04/01 10:26:51;;;;;;;45.78;25.25;;;;;;;9.25;100.00;99313.44;6174872;23;20067;-72
2024/04/01 10:30:11;;;;;;;40.13;24.85;;;;;;;9.26;100.00;99305.13;6147666;23;20021;-74
2024/04/01 10:33:16;;;;;;;39.35;22.75;;;;;;;9.27;100.00;99308.56;6151265;23;20061;-72
2024/04/01 10:36:04;;;;;;;41.28;24.70;;;;;;;9.27;100.00;99300.56;6085995;23;20107;-73
2024/04/01 10:38:50;;;;;;;40.10;23.27;;;;;;;9.35;100.00;99294.56;6149840;23;20016;-73
2024/04/01 10:41:57;;;;;;;42.35;24.25;;;;;;;9.39;100.00;99306.22;6126367;23;20040;-71
2024/04/01 10:45:10;;;;;;;36.90;24.83;;;;;;;9.44;100.00;99279.41;6149435;23;20052;-73
2024/04/01 10:48:11;;;;;;;34.85;21.10;;;;;;;9.48;100.00;99285.75;6032436;23;20023;-73
2024/04/01 10:50:52;;;;;;;32.65;21.23;;;;;;;9.50;100.00;99286.22;6176933;23;20009;-75
2024/04/01 10:53:57;;;;;;;35.40;21.02;;;;;;;9.58;100.00;99279.41;6124278;23;20075;-74
2024/04/01 10:56:54;;;;;;;35.17;23.45;;;;;;;9.64;100.00;99267.50;6151016;23;20016;-74
2024/04/01 11:00:05;;;;;;;33.83;22.00;;;;;;;9.71;100.00;99267.91;6149865;23;20025;-73
2024/04/01 11:03:24;;;;;;;35.35;21.92;;;;;;;9.76;100.00;99280.38;6150735;23;20071;-72
2024/04/01 11:06:14;;;;;;;37.95;20.75;;;;;;;9.79;100.00;99263.72;6118650;23;20024;-73
2024/04/01 11:09:17;;;;;;;30.50;17.63;;;;;;;9.79;100.00;99261.06;6125504;23;20414;-73
2024/04/01 11:12:15;;;;;;;33.47;21.30;;;;;;;9.84;100.00;99256.41;6150646;23;20393;-72
2024/04/01 11:14:43;;;;;;;34.15;20.83;;;;;;;9.84;100.00;99251.03;6125943;23;20017;-73
2024/04/01 11:17:09;;;;;;;38.28;23.20;;;;;;;9.95;100.00;99245.47;6123577;23;20012;-73
2024/04/01 11:19:44;;;;;;;31.95;18.45;;;;;;;9.98;100.00;99240.31;6149342;23;20008;-73
2024/04/01 11:22:15;;;;;;;30.05;20.23;;;;;;;9.98;100.00;99248.34;6124389;23;20021;-73
2024/04/01 11:25:02;;;;;;;30.30;19.23;;;;;;;9.95;100.00;99240.09;6148177;23;20017;-73
2024/04/01 11:27:41;;;;;;;28.25;18.98;;;;;;;9.94;100.00;99231.31;6147823;23;20066;-73
2024/04/01 11:30:18;;;;;;;;;;;;;;;9.94;100.00;99223.28;6150816;23;20019;-74